sensor_id;sensor_type;location;lat;lon;timestamp;pressure;altitude;pressure_sealevel;temperature
66372;BMP180;53168;51.146;17.120;2022-08-19T00:01:29;99584.40;;;26.12
66372;BMP180;53168;51.146;17.120;2022-08-19T00:04:12;99578.80;;;26.10
66372;BMP180;53168;51.146;17.120;2022-08-19T00:06:47;99579.80;;;26.10
66372;BMP180;53168;51.146;17.120;2022-08-19T00:09:25;99575.80;;;26.10
66372;BMP180;53168;51.146;17.120;2022-08-19T00:11:59;99575.60;;;26.00
66372;BMP180;53168;51.146;17.120;2022-08-19T00:14:33;99567.20;;;26.00
66372;BMP180;53168;51.146;17.120;2022-08-19T00:17:07;99568.00;;;25.98
66372;BMP180;53168;51.146;17.120;2022-08-19T00:19:42;99560.00;;;26.00
66372;BMP180;53168;51.146;17.120;2022-08-19T00:22:15;99554.80;;;25.98
66372;BMP180;53168;51.146;17.120;2022-08-19T00:24:50;99551.00;;;25.90
66372;BMP180;53168;51.146;17.120;2022-08-19T00:27:23;99541.60;;;25.82
66372;BMP180;53168;51.146;17.120;2022-08-19T00:29:59;99537.40;;;25.80
66372;BMP180;53168;51.146;17.120;2022-08-19T00:32:34;99532.20;;;25.70
66372;BMP180;53168;51.146;17.120;2022-08-19T00:35:09;99528.00;;;25.60
66372;BMP180;53168;51.146;17.120;2022-08-19T00:37:43;99522.00;;;25.60
66372;BMP180;53168;51.146;17.120;2022-08-19T00:40:18;99519.20;;;25.50
66372;BMP180;53168;51.146;17.120;2022-08-19T00:42:51;99518.20;;;25.40
66372;BMP180;53168;51.146;17.120;2022-08-19T00:45:30;99520.60;;;25.30
66372;BMP180;53168;51.146;17.120;2022-08-19T00:48:07;99522.60;;;25.24
66372;BMP180;53168;51.146;17.120;2022-08-19T00:50:47;99523.60;;;25.20
66372;BMP180;53168;51.146;17.120;2022-08-19T00:53:36;99531.40;;;25.22
66372;BMP180;53168;51.146;17.120;2022-08-19T00:56:11;99522.00;;;25.30
66372;BMP180;53168;51.146;17.120;2022-08-19T00:58:45;99523.20;;;25.30
66372;BMP180;53168;51.146;17.120;2022-08-19T01:01:18;99533.60;;;25.30
66372;BMP180;53168;51.146;17.120;2022-08-19T01:03:52;99533.80;;;25.20
66372;BMP180;53168;51.146;17.120;2022-08-19T01:06:32;99536.40;;;25.20
66372;BMP180;53168;51.146;17.120;2022-08-19T01:09:08;99554.00;;;25.20
66372;BMP180;53168;51.146;17.120;2022-08-19T01:11:45;99543.20;;;25.20
66372;BMP180;53168;51.146;17.120;2022-08-19T01:14:20;99521.40;;;25.20
66372;BMP180;53168;51.146;17.120;2022-08-19T01:16:55;99519.20;;;25.30
66372;BMP180;53168;51.146;17.120;2022-08-19T01:19:33;99509.40;;;25.30
66372;BMP180;53168;51.146;17.120;2022-08-19T01:25:02;99499.40;;;25.40
66372;BMP180;53168;51.146;17.120;2022-08-19T01:27:49;99486.80;;;25.40
66372;BMP180;53168;51.146;17.120;2022-08-19T01:30:31;99478.00;;;25.30
66372;BMP180;53168;51.146;17.120;2022-08-19T01:33:05;99476.40;;;25.18
66372;BMP180;53168;51.146;17.120;2022-08-19T01:35:39;99465.60;;;25.10
66372;BMP180;53168;51.146;17.120;2022-08-19T01:38:25;99457.40;;;25.00
66372;BMP180;53168;51.146;17.120;2022-08-19T01:41:00;99454.00;;;24.96
66372;BMP180;53168;51.146;17.120;2022-08-19T01:43:42;99456.60;;;24.90
66372;BMP180;53168;51.146;17.120;2022-08-19T01:46:36;99465.60;;;24.90
66372;BMP180;53168;51.146;17.120;2022-08-19T01:49:10;99460.20;;;24.82
66372;BMP180;53168;51.146;17.120;2022-08-19T01:51:44;99455.80;;;24.80
66372;BMP180;53168;51.146;17.120;2022-08-19T01:54:20;99455.20;;;24.78
66372;BMP180;53168;51.146;17.120;2022-08-19T01:57:07;99459.20;;;24.70
66372;BMP180;53168;51.146;17.120;2022-08-19T01:59:42;99457.60;;;24.70
66372;BMP180;53168;51.146;17.120;2022-08-19T02:02:16;99455.60;;;24.70
66372;BMP180;53168;51.146;17.120;2022-08-19T02:04:49;99458.40;;;24.70
66372;BMP180;53168;51.146;17.120;2022-08-19T02:07:23;99458.20;;;24.60
66372;BMP180;53168;51.146;17.120;2022-08-19T02:09:57;99460.00;;;24.60
66372;BMP180;53168;51.146;17.120;2022-08-19T02:12:35;99457.60;;;24.50
66372;BMP180;53168;51.146;17.120;2022-08-19T02:15:10;99463.40;;;24.50
66372;BMP180;53168;51.146;17.120;2022-08-19T02:17:45;99461.00;;;24.40
66372;BMP180;53168;51.146;17.120;2022-08-19T02:20:19;99460.40;;;24.40
66372;BMP180;53168;51.146;17.120;2022-08-19T02:22:52;99456.00;;;24.34
66372;BMP180;53168;51.146;17.120;2022-08-19T02:25:26;99446.00;;;24.30
66372;BMP180;53168;51.146;17.120;2022-08-19T02:28:00;99441.00;;;24.30
66372;BMP180;53168;51.146;17.120;2022-08-19T02:30:34;99431.40;;;24.30
66372;BMP180;53168;51.146;17.120;2022-08-19T02:33:07;99428.00;;;24.20
66372;BMP180;53168;51.146;17.120;2022-08-19T02:35:44;99427.20;;;24.10
66372;BMP180;53168;51.146;17.120;2022-08-19T02:38:18;99436.60;;;24.10
66372;BMP180;53168;51.146;17.120;2022-08-19T02:41:04;99439.60;;;24.02
66372;BMP180;53168;51.146;17.120;2022-08-19T02:43:41;99433.20;;;24.00
66372;BMP180;53168;51.146;17.120;2022-08-19T02:46:35;99423.40;;;24.00
66372;BMP180;53168;51.146;17.120;2022-08-19T02:49:09;99417.60;;;23.90
66372;BMP180;53168;51.146;17.120;2022-08-19T02:51:46;99425.00;;;23.90
66372;BMP180;53168;51.146;17.120;2022-08-19T02:54:19;99423.40;;;23.80
66372;BMP180;53168;51.146;17.120;2022-08-19T02:56:53;99431.80;;;23.80
66372;BMP180;53168;51.146;17.120;2022-08-19T02:59:27;99430.60;;;23.72
66372;BMP180;53168;51.146;17.120;2022-08-19T03:02:02;99433.40;;;23.70
66372;BMP180;53168;51.146;17.120;2022-08-19T03:04:40;99429.60;;;23.70
66372;BMP180;53168;51.146;17.120;2022-08-19T03:07:17;99424.40;;;23.78
66372;BMP180;53168;51.146;17.120;2022-08-19T03:09:51;99421.00;;;23.82
66372;BMP180;53168;51.146;17.120;2022-08-19T03:12:24;99422.00;;;23.90
66372;BMP180;53168;51.146;17.120;2022-08-19T03:14:58;99422.00;;;23.90
66372;BMP180;53168;51.146;17.120;2022-08-19T03:17:32;99425.00;;;23.90
66372;BMP180;53168;51.146;17.120;2022-08-19T03:20:08;99434.60;;;24.00
66372;BMP180;53168;51.146;17.120;2022-08-19T03:22:41;99449.00;;;24.10
66372;BMP180;53168;51.146;17.120;2022-08-19T03:25:15;99455.40;;;24.10
66372;BMP180;53168;51.146;17.120;2022-08-19T03:27:48;99462.60;;;24.00
66372;BMP180;53168;51.146;17.120;2022-08-19T03:30:22;99467.20;;;24.00
66372;BMP180;53168;51.146;17.120;2022-08-19T03:32:57;99460.20;;;24.00
66372;BMP180;53168;51.146;17.120;2022-08-19T03:35:31;99464.40;;;24.00
66372;BMP180;53168;51.146;17.120;2022-08-19T03:38:04;99467.80;;;23.88
66372;BMP180;53168;51.146;17.120;2022-08-19T03:40:40;99465.40;;;23.70
66372;BMP180;53168;51.146;17.120;2022-08-19T03:43:14;99458.40;;;23.60
66372;BMP180;53168;51.146;17.120;2022-08-19T03:45:58;99459.40;;;23.50
66372;BMP180;53168;51.146;17.120;2022-08-19T03:48:33;99468.40;;;23.42
66372;BMP180;53168;51.146;17.120;2022-08-19T03:51:14;99465.60;;;23.36
66372;BMP180;53168;51.146;17.120;2022-08-19T03:54:05;99454.60;;;23.30
66372;BMP180;53168;51.146;17.120;2022-08-19T03:56:41;99457.00;;;23.20
66372;BMP180;53168;51.146;17.120;2022-08-19T03:59:18;99459.40;;;23.18
66372;BMP180;53168;51.146;17.120;2022-08-19T04:01:52;99461.00;;;23.10
66372;BMP180;53168;51.146;17.120;2022-08-19T04:04:26;99467.80;;;23.10
66372;BMP180;53168;51.146;17.120;2022-08-19T04:07:03;99467.80;;;23.10
66372;BMP180;53168;51.146;17.120;2022-08-19T04:09:38;99481.00;;;23.14
66372;BMP180;53168;51.146;17.120;2022-08-19T04:12:12;99484.60;;;23.12
66372;BMP180;53168;51.146;17.120;2022-08-19T04:14:47;99490.20;;;23.20
66372;BMP180;53168;51.146;17.120;2022-08-19T04:17:20;99481.20;;;23.20
66372;BMP180;53168;51.146;17.120;2022-08-19T04:19:54;99482.20;;;23.20
66372;BMP180;53168;51.146;17.120;2022-08-19T04:22:27;99482.00;;;23.20
66372;BMP180;53168;51.146;17.120;2022-08-19T04:25:02;99485.60;;;23.20
66372;BMP180;53168;51.146;17.120;2022-08-19T04:27:35;99496.60;;;23.30
66372;BMP180;53168;51.146;17.120;2022-08-19T04:30:11;99496.60;;;23.40
66372;BMP180;53168;51.146;17.120;2022-08-19T04:32:45;99503.60;;;23.50
66372;BMP180;53168;51.146;17.120;2022-08-19T04:35:18;99499.20;;;23.50
66372;BMP180;53168;51.146;17.120;2022-08-19T04:37:56;99499.80;;;23.60
66372;BMP180;53168;51.146;17.120;2022-08-19T04:40:29;99492.20;;;23.62
66372;BMP180;53168;51.146;17.120;2022-08-19T04:43:20;99487.40;;;23.70
66372;BMP180;53168;51.146;17.120;2022-08-19T04:45:57;99479.00;;;23.72
66372;BMP180;53168;51.146;17.120;2022-08-19T04:48:32;99475.40;;;23.80
66372;BMP180;53168;51.146;17.120;2022-08-19T04:51:11;99473.60;;;23.80
66372;BMP180;53168;51.146;17.120;2022-08-19T04:53:46;99475.20;;;23.80
66372;BMP180;53168;51.146;17.120;2022-08-19T04:56:21;99481.60;;;23.90
66372;BMP180;53168;51.146;17.120;2022-08-19T04:58:58;99489.20;;;23.90
66372;BMP180;53168;51.146;17.120;2022-08-19T05:01:36;99484.40;;;24.00
66372;BMP180;53168;51.146;17.120;2022-08-19T05:04:10;99477.40;;;24.02
66372;BMP180;53168;51.146;17.120;2022-08-19T05:06:45;99470.80;;;24.10
66372;BMP180;53168;51.146;17.120;2022-08-19T05:09:19;99466.40;;;24.10
66372;BMP180;53168;51.146;17.120;2022-08-19T05:11:53;99464.80;;;24.20
66372;BMP180;53168;51.146;17.120;2022-08-19T05:14:26;99468.00;;;24.20
66372;BMP180;53168;51.146;17.120;2022-08-19T05:17:01;99477.00;;;24.30
66372;BMP180;53168;51.146;17.120;2022-08-19T05:19:55;99471.80;;;24.30
66372;BMP180;53168;51.146;17.120;2022-08-19T05:22:49;99470.80;;;24.40
66372;BMP180;53168;51.146;17.120;2022-08-19T05:25:25;99480.00;;;24.40
66372;BMP180;53168;51.146;17.120;2022-08-19T05:27:58;99483.00;;;24.50
66372;BMP180;53168;51.146;17.120;2022-08-19T05:30:31;99485.20;;;24.60
66372;BMP180;53168;51.146;17.120;2022-08-19T05:33:18;99483.40;;;24.60
66372;BMP180;53168;51.146;17.120;2022-08-19T05:35:52;99479.20;;;24.70
66372;BMP180;53168;51.146;17.120;2022-08-19T05:38:25;99472.60;;;24.70
66372;BMP180;53168;51.146;17.120;2022-08-19T05:40:59;99476.00;;;24.72
66372;BMP180;53168;51.146;17.120;2022-08-19T05:43:32;99480.60;;;24.80
66372;BMP180;53168;51.146;17.120;2022-08-19T05:46:07;99489.60;;;24.82
66372;BMP180;53168;51.146;17.120;2022-08-19T05:48:40;99493.80;;;24.90
66372;BMP180;53168;51.146;17.120;2022-08-19T05:51:14;99487.60;;;24.90
66372;BMP180;53168;51.146;17.120;2022-08-19T05:53:49;99485.80;;;24.90
66372;BMP180;53168;51.146;17.120;2022-08-19T05:56:22;99480.60;;;25.00
66372;BMP180;53168;51.146;17.120;2022-08-19T05:58:56;99481.40;;;25.10
66372;BMP180;53168;51.146;17.120;2022-08-19T06:01:30;99478.20;;;25.10
66372;BMP180;53168;51.146;17.120;2022-08-19T06:04:05;99473.40;;;25.18
66372;BMP180;53168;51.146;17.120;2022-08-19T06:06:39;99479.00;;;25.20
66372;BMP180;53168;51.146;17.120;2022-08-19T06:09:12;99488.60;;;25.20
66372;BMP180;53168;51.146;17.120;2022-08-19T06:11:49;99497.80;;;25.30
66372;BMP180;53168;51.146;17.120;2022-08-19T06:14:30;99506.60;;;25.40
66372;BMP180;53168;51.146;17.120;2022-08-19T06:17:05;99509.20;;;25.50
66372;BMP180;53168;51.146;17.120;2022-08-19T06:19:38;99510.40;;;25.52
66372;BMP180;53168;51.146;17.120;2022-08-19T06:22:12;99523.00;;;25.60
66372;BMP180;53168;51.146;17.120;2022-08-19T06:24:50;99532.00;;;25.60
66372;BMP180;53168;51.146;17.120;2022-08-19T06:27:25;99536.20;;;25.66
66372;BMP180;53168;51.146;17.120;2022-08-19T06:29:59;99545.40;;;25.70
66372;BMP180;53168;51.146;17.120;2022-08-19T06:32:32;99549.80;;;25.80
66372;BMP180;53168;51.146;17.120;2022-08-19T06:35:11;99542.00;;;25.80
66372;BMP180;53168;51.146;17.120;2022-08-19T06:37:46;99539.60;;;25.90
66372;BMP180;53168;51.146;17.120;2022-08-19T06:40:19;99546.20;;;25.96
66372;BMP180;53168;51.146;17.120;2022-08-19T06:42:53;99557.80;;;26.00
66372;BMP180;53168;51.146;17.120;2022-08-19T06:45:28;99559.80;;;26.10
66372;BMP180;53168;51.146;17.120;2022-08-19T06:48:06;99576.20;;;26.20
66372;BMP180;53168;51.146;17.120;2022-08-19T06:50:42;99585.60;;;26.30
66372;BMP180;53168;51.146;17.120;2022-08-19T06:53:16;99591.40;;;26.38
66372;BMP180;53168;51.146;17.120;2022-08-19T06:55:49;99592.20;;;26.40
66372;BMP180;53168;51.146;17.120;2022-08-19T06:58:26;99599.60;;;26.50
66372;BMP180;53168;51.146;17.120;2022-08-19T07:01:06;99600.60;;;26.50
66372;BMP180;53168;51.146;17.120;2022-08-19T07:03:40;99595.20;;;26.60
66372;BMP180;53168;51.146;17.120;2022-08-19T07:06:18;99593.40;;;26.70
66372;BMP180;53168;51.146;17.120;2022-08-19T07:09:14;99597.40;;;26.80
66372;BMP180;53168;51.146;17.120;2022-08-19T07:11:52;99606.20;;;27.00
66372;BMP180;53168;51.146;17.120;2022-08-19T07:14:28;99603.20;;;27.10
66372;BMP180;53168;51.146;17.120;2022-08-19T07:17:01;99600.20;;;27.18
66372;BMP180;53168;51.146;17.120;2022-08-19T07:19:37;99598.00;;;27.20
66372;BMP180;53168;51.146;17.120;2022-08-19T07:22:11;99602.80;;;27.30
66372;BMP180;53168;51.146;17.120;2022-08-19T07:24:48;99603.40;;;27.40
66372;BMP180;53168;51.146;17.120;2022-08-19T07:27:22;99608.80;;;27.50
66372;BMP180;53168;51.146;17.120;2022-08-19T07:29:56;99607.20;;;27.62
66372;BMP180;53168;51.146;17.120;2022-08-19T07:32:31;99609.00;;;27.80
66372;BMP180;53168;51.146;17.120;2022-08-19T07:35:05;99611.80;;;27.80
66372;BMP180;53168;51.146;17.120;2022-08-19T07:37:39;99621.20;;;27.90
66372;BMP180;53168;51.146;17.120;2022-08-19T07:40:16;99621.40;;;28.00
66372;BMP180;53168;51.146;17.120;2022-08-19T07:42:49;99622.60;;;28.10
66372;BMP180;53168;51.146;17.120;2022-08-19T07:45:23;99626.60;;;28.24
66372;BMP180;53168;51.146;17.120;2022-08-19T07:47:56;99627.00;;;28.34
66372;BMP180;53168;51.146;17.120;2022-08-19T07:50:31;99624.40;;;28.42
66372;BMP180;53168;51.146;17.120;2022-08-19T07:53:05;99628.40;;;28.52
66372;BMP180;53168;51.146;17.120;2022-08-19T07:55:38;99624.80;;;28.66
66372;BMP180;53168;51.146;17.120;2022-08-19T07:58:19;99627.20;;;28.80
66372;BMP180;53168;51.146;17.120;2022-08-19T08:00:54;99626.80;;;28.90
66372;BMP180;53168;51.146;17.120;2022-08-19T08:03:28;99627.00;;;29.02
66372;BMP180;53168;51.146;17.120;2022-08-19T08:06:16;99624.80;;;29.20
66372;BMP180;53168;51.146;17.120;2022-08-19T08:09:09;99627.20;;;29.52
66372;BMP180;53168;51.146;17.120;2022-08-19T08:11:53;99635.00;;;29.90
66372;BMP180;53168;51.146;17.120;2022-08-19T08:14:30;99636.40;;;30.14
66372;BMP180;53168;51.146;17.120;2022-08-19T08:17:09;99641.60;;;30.48
66372;BMP180;53168;51.146;17.120;2022-08-19T08:19:44;99651.40;;;30.84
66372;BMP180;53168;51.146;17.120;2022-08-19T08:22:28;99653.40;;;31.10
66372;BMP180;53168;51.146;17.120;2022-08-19T08:25:22;99654.00;;;31.20
66372;BMP180;53168;51.146;17.120;2022-08-19T08:27:56;99661.80;;;31.20
66372;BMP180;53168;51.146;17.120;2022-08-19T08:30:32;99657.80;;;31.20
66372;BMP180;53168;51.146;17.120;2022-08-19T08:33:08;99653.40;;;31.38
66372;BMP180;53168;51.146;17.120;2022-08-19T08:35:42;99653.00;;;31.50
66372;BMP180;53168;51.146;17.120;2022-08-19T08:38:18;99648.20;;;31.50
66372;BMP180;53168;51.146;17.120;2022-08-19T08:40:56;99640.00;;;31.60
66372;BMP180;53168;51.146;17.120;2022-08-19T08:43:44;99639.20;;;31.70
66372;BMP180;53168;51.146;17.120;2022-08-19T08:46:25;99633.60;;;31.90
66372;BMP180;53168;51.146;17.120;2022-08-19T08:49:24;99635.00;;;32.02
66372;BMP180;53168;51.146;17.120;2022-08-19T08:52:05;99641.60;;;32.20
66372;BMP180;53168;51.146;17.120;2022-08-19T08:54:44;99644.40;;;32.30
66372;BMP180;53168;51.146;17.120;2022-08-19T08:57:35;99639.80;;;32.40
66372;BMP180;53168;51.146;17.120;2022-08-19T09:00:21;99635.00;;;32.50
66372;BMP180;53168;51.146;17.120;2022-08-19T09:02:56;99638.60;;;32.50
66372;BMP180;53168;51.146;17.120;2022-08-19T09:05:43;99640.60;;;32.60
66372;BMP180;53168;51.146;17.120;2022-08-19T09:08:29;99639.40;;;32.60
66372;BMP180;53168;51.146;17.120;2022-08-19T09:11:09;99630.00;;;32.60
66372;BMP180;53168;51.146;17.120;2022-08-19T09:13:59;99621.40;;;32.54
66372;BMP180;53168;51.146;17.120;2022-08-19T09:16:38;99616.60;;;32.60
66372;BMP180;53168;51.146;17.120;2022-08-19T09:19:12;99609.80;;;32.60
66372;BMP180;53168;51.146;17.120;2022-08-19T09:21:53;99618.60;;;32.64
66372;BMP180;53168;51.146;17.120;2022-08-19T09:24:27;99625.80;;;32.70
66372;BMP180;53168;51.146;17.120;2022-08-19T09:27:02;99630.40;;;32.80
66372;BMP180;53168;51.146;17.120;2022-08-19T09:29:49;99636.20;;;32.80
66372;BMP180;53168;51.146;17.120;2022-08-19T09:32:26;99639.00;;;32.90
66372;BMP180;53168;51.146;17.120;2022-08-19T09:34:59;99642.20;;;32.90
66372;BMP180;53168;51.146;17.120;2022-08-19T09:37:34;99633.80;;;33.00
66372;BMP180;53168;51.146;17.120;2022-08-19T09:40:11;99634.40;;;33.00
66372;BMP180;53168;51.146;17.120;2022-08-19T09:42:47;99631.60;;;33.02
66372;BMP180;53168;51.146;17.120;2022-08-19T09:45:24;99635.20;;;33.02
66372;BMP180;53168;51.146;17.120;2022-08-19T09:47:57;99635.20;;;33.10
66372;BMP180;53168;51.146;17.120;2022-08-19T09:50:30;99634.40;;;33.18
66372;BMP180;53168;51.146;17.120;2022-08-19T09:53:07;99630.00;;;33.30
66372;BMP180;53168;51.146;17.120;2022-08-19T09:55:46;99632.00;;;33.42
66372;BMP180;53168;51.146;17.120;2022-08-19T09:58:19;99630.20;;;33.52
66372;BMP180;53168;51.146;17.120;2022-08-19T10:00:59;99638.00;;;33.60
66372;BMP180;53168;51.146;17.120;2022-08-19T10:03:34;99640.20;;;33.62
66372;BMP180;53168;51.146;17.120;2022-08-19T10:06:08;99636.20;;;33.70
66372;BMP180;53168;51.146;17.120;2022-08-19T10:08:49;99635.00;;;33.70
66372;BMP180;53168;51.146;17.120;2022-08-19T10:11:23;99646.80;;;33.80
66372;BMP180;53168;51.146;17.120;2022-08-19T10:14:04;99641.80;;;33.90
66372;BMP180;53168;51.146;17.120;2022-08-19T10:16:39;99637.20;;;34.10
66372;BMP180;53168;51.146;17.120;2022-08-19T10:19:14;99640.80;;;34.10
66372;BMP180;53168;51.146;17.120;2022-08-19T10:21:57;99645.20;;;34.20
66372;BMP180;53168;51.146;17.120;2022-08-19T10:24:31;99646.60;;;34.30
66372;BMP180;53168;51.146;17.120;2022-08-19T10:27:06;99645.60;;;34.40
66372;BMP180;53168;51.146;17.120;2022-08-19T10:29:41;99643.60;;;34.52
66372;BMP180;53168;51.146;17.120;2022-08-19T10:32:17;99639.80;;;34.70
66372;BMP180;53168;51.146;17.120;2022-08-19T10:35:07;99634.00;;;34.88
66372;BMP180;53168;51.146;17.120;2022-08-19T10:37:41;99633.60;;;35.08
66372;BMP180;53168;51.146;17.120;2022-08-19T10:40:29;99629.20;;;35.20
66372;BMP180;53168;51.146;17.120;2022-08-19T10:43:03;99626.00;;;35.32
66372;BMP180;53168;51.146;17.120;2022-08-19T10:45:36;99623.80;;;35.40
66372;BMP180;53168;51.146;17.120;2022-08-19T10:48:23;99618.80;;;35.50
66372;BMP180;53168;51.146;17.120;2022-08-19T10:50:59;99623.00;;;35.56
66372;BMP180;53168;51.146;17.120;2022-08-19T10:53:54;99624.40;;;35.68
66372;BMP180;53168;51.146;17.120;2022-08-19T10:56:29;99627.40;;;35.80
66372;BMP180;53168;51.146;17.120;2022-08-19T10:59:25;99626.80;;;35.80
66372;BMP180;53168;51.146;17.120;2022-08-19T11:02:08;99627.80;;;35.94
66372;BMP180;53168;51.146;17.120;2022-08-19T11:04:43;99630.00;;;36.10
66372;BMP180;53168;51.146;17.120;2022-08-19T11:07:20;99628.40;;;36.18
66372;BMP180;53168;51.146;17.120;2022-08-19T11:09:53;99631.60;;;36.20
66372;BMP180;53168;51.146;17.120;2022-08-19T11:12:26;99633.60;;;36.30
66372;BMP180;53168;51.146;17.120;2022-08-19T11:15:00;99626.60;;;36.40
66372;BMP180;53168;51.146;17.120;2022-08-19T11:17:33;99623.40;;;36.50
66372;BMP180;53168;51.146;17.120;2022-08-19T11:20:10;99622.00;;;36.60
66372;BMP180;53168;51.146;17.120;2022-08-19T11:22:44;99616.60;;;36.60
66372;BMP180;53168;51.146;17.120;2022-08-19T11:25:19;99619.80;;;36.78
66372;BMP180;53168;51.146;17.120;2022-08-19T11:27:54;99617.80;;;36.98
66372;BMP180;53168;51.146;17.120;2022-08-19T11:30:27;99619.80;;;37.10
66372;BMP180;53168;51.146;17.120;2022-08-19T11:33:01;99630.20;;;37.12
66372;BMP180;53168;51.146;17.120;2022-08-19T11:35:38;99628.80;;;37.20
66372;BMP180;53168;51.146;17.120;2022-08-19T11:38:12;99625.20;;;37.36
66372;BMP180;53168;51.146;17.120;2022-08-19T11:40:53;99622.20;;;37.60
66372;BMP180;53168;51.146;17.120;2022-08-19T11:43:26;99623.60;;;37.84
66372;BMP180;53168;51.146;17.120;2022-08-19T11:46:08;99632.40;;;38.00
66372;BMP180;53168;51.146;17.120;2022-08-19T11:48:42;99634.40;;;38.14
66372;BMP180;53168;51.146;17.120;2022-08-19T11:51:20;99636.40;;;38.20
66372;BMP180;53168;51.146;17.120;2022-08-19T11:53:57;99641.40;;;38.28
66372;BMP180;53168;51.146;17.120;2022-08-19T11:56:31;99641.40;;;38.20
66372;BMP180;53168;51.146;17.120;2022-08-19T11:59:04;99635.40;;;38.20
66372;BMP180;53168;51.146;17.120;2022-08-19T12:01:45;99631.00;;;38.48
66372;BMP180;53168;51.146;17.120;2022-08-19T12:04:18;99630.60;;;38.70
66372;BMP180;53168;51.146;17.120;2022-08-19T12:06:52;99614.60;;;39.04
66372;BMP180;53168;51.146;17.120;2022-08-19T12:09:25;99592.60;;;40.38
66372;BMP180;53168;51.146;17.120;2022-08-19T12:12:02;99591.00;;;41.50
66372;BMP180;53168;51.146;17.120;2022-08-19T12:14:35;99588.60;;;42.78
66372;BMP180;53168;51.146;17.120;2022-08-19T12:17:08;99584.40;;;43.98
66372;BMP180;53168;51.146;17.120;2022-08-19T12:19:44;99585.20;;;45.06
66372;BMP180;53168;51.146;17.120;2022-08-19T12:22:18;99582.20;;;45.94
66372;BMP180;53168;51.146;17.120;2022-08-19T12:24:52;99588.80;;;46.84
66372;BMP180;53168;51.146;17.120;2022-08-19T12:27:26;99596.60;;;47.10
66372;BMP180;53168;51.146;17.120;2022-08-19T12:30:14;99586.60;;;47.64
66372;BMP180;53168;51.146;17.120;2022-08-19T12:32:48;99609.20;;;47.94
66372;BMP180;53168;51.146;17.120;2022-08-19T12:35:23;99601.40;;;48.18
66372;BMP180;53168;51.146;17.120;2022-08-19T12:37:56;99609.40;;;48.74
66372;BMP180;53168;51.146;17.120;2022-08-19T12:40:30;99606.60;;;49.16
66372;BMP180;53168;51.146;17.120;2022-08-19T12:43:03;99602.00;;;49.76
66372;BMP180;53168;51.146;17.120;2022-08-19T12:45:38;99605.60;;;50.52
66372;BMP180;53168;51.146;17.120;2022-08-19T12:48:14;99606.40;;;51.00
66372;BMP180;53168;51.146;17.120;2022-08-19T12:51:10;99611.00;;;51.20
66372;BMP180;53168;51.146;17.120;2022-08-19T12:53:45;99604.20;;;51.26
66372;BMP180;53168;51.146;17.120;2022-08-19T12:56:18;99609.00;;;51.60
66372;BMP180;53168;51.146;17.120;2022-08-19T12:58:54;99603.60;;;51.80
66372;BMP180;53168;51.146;17.120;2022-08-19T13:01:27;99606.20;;;52.12
66372;BMP180;53168;51.146;17.120;2022-08-19T13:04:04;99608.20;;;52.56
66372;BMP180;53168;51.146;17.120;2022-08-19T13:06:38;99612.20;;;52.70
66372;BMP180;53168;51.146;17.120;2022-08-19T13:09:11;99612.20;;;52.50
66372;BMP180;53168;51.146;17.120;2022-08-19T13:11:45;99612.00;;;52.60
66372;BMP180;53168;51.146;17.120;2022-08-19T13:14:18;99615.20;;;52.50
66372;BMP180;53168;51.146;17.120;2022-08-19T13:16:51;99617.60;;;52.40
66372;BMP180;53168;51.146;17.120;2022-08-19T13:19:25;99612.60;;;52.30
66372;BMP180;53168;51.146;17.120;2022-08-19T13:21:59;99614.00;;;52.10
66372;BMP180;53168;51.146;17.120;2022-08-19T13:24:32;99616.00;;;51.90
66372;BMP180;53168;51.146;17.120;2022-08-19T13:27:05;99612.60;;;51.80
66372;BMP180;53168;51.146;17.120;2022-08-19T13:29:40;99613.20;;;52.00
66372;BMP180;53168;51.146;17.120;2022-08-19T13:32:32;99612.00;;;52.30
66372;BMP180;53168;51.146;17.120;2022-08-19T13:35:23;99608.60;;;52.30
66372;BMP180;53168;51.146;17.120;2022-08-19T13:37:56;99611.20;;;52.44
66372;BMP180;53168;51.146;17.120;2022-08-19T13:40:30;99610.20;;;52.80
66372;BMP180;53168;51.146;17.120;2022-08-19T13:43:07;99615.20;;;52.60
66372;BMP180;53168;51.146;17.120;2022-08-19T13:45:56;99612.80;;;52.78
66372;BMP180;53168;51.146;17.120;2022-08-19T13:48:29;99634.20;;;51.82
66372;BMP180;53168;51.146;17.120;2022-08-19T13:51:06;99638.80;;;50.18
66372;BMP180;53168;51.146;17.120;2022-08-19T13:53:42;99645.40;;;48.48
66372;BMP180;53168;51.146;17.120;2022-08-19T13:56:20;99647.00;;;46.90
66372;BMP180;53168;51.146;17.120;2022-08-19T13:58:57;99648.80;;;45.54
66372;BMP180;53168;51.146;17.120;2022-08-19T14:01:31;99649.60;;;44.24
66372;BMP180;53168;51.146;17.120;2022-08-19T14:04:05;99647.80;;;43.30
66372;BMP180;53168;51.146;17.120;2022-08-19T14:06:38;99641.80;;;42.80
66372;BMP180;53168;51.146;17.120;2022-08-19T14:09:11;99644.00;;;42.30
66372;BMP180;53168;51.146;17.120;2022-08-19T14:11:45;99646.20;;;41.70
66372;BMP180;53168;51.146;17.120;2022-08-19T14:14:18;99643.20;;;40.96
66372;BMP180;53168;51.146;17.120;2022-08-19T14:16:51;99641.20;;;40.40
66372;BMP180;53168;51.146;17.120;2022-08-19T14:19:24;99647.80;;;39.92
66372;BMP180;53168;51.146;17.120;2022-08-19T14:22:01;99646.20;;;39.46
66372;BMP180;53168;51.146;17.120;2022-08-19T14:24:34;99644.80;;;39.00
66372;BMP180;53168;51.146;17.120;2022-08-19T14:27:09;99640.40;;;38.60
66372;BMP180;53168;51.146;17.120;2022-08-19T14:29:43;99640.80;;;38.16
66372;BMP180;53168;51.146;17.120;2022-08-19T14:32:17;99630.60;;;37.80
66372;BMP180;53168;51.146;17.120;2022-08-19T14:34:50;99633.20;;;37.44
66372;BMP180;53168;51.146;17.120;2022-08-19T14:37:24;99629.60;;;37.10
66372;BMP180;53168;51.146;17.120;2022-08-19T14:39:59;99632.20;;;36.80
66372;BMP180;53168;51.146;17.120;2022-08-19T14:42:34;99628.00;;;36.60
66372;BMP180;53168;51.146;17.120;2022-08-19T14:45:10;99628.40;;;36.44
66372;BMP180;53168;51.146;17.120;2022-08-19T14:47:44;99625.00;;;36.30
66372;BMP180;53168;51.146;17.120;2022-08-19T14:50:18;99626.40;;;36.16
66372;BMP180;53168;51.146;17.120;2022-08-19T14:52:59;99624.20;;;36.00